Terminal Aerodrome Forecast
Issued by NWS Tuscon, AZ

Home | Current Version | Previous Version | Text Only | Print | Product List | Glossary On
Versions: 1 2 3 4 5 6 7 8 9 10 11 12
838
FTUS45 KTWC 041735
TAFDUG
TAF
KDUG 041735Z 0418/0518 12015G23KT P6SM SKC
     FM042100 15013G21KT P6SM SCT120
     FM050200 11011KT P6SM FEW120
     FM051000 09007KT P6SM SKC
     FM051500 16014G22KT P6SM SKC=

USA.gov is the U.S. government's official web portal to all federal, state and local government web resources and services.